sensor_id;sensor_type;location;lat;lon;timestamp;P1;durP1;ratioP1;P2;durP2;ratioP2
39308;SDS011;26019;47.510;19.122;2022-07-03T00:03:39;9.52;;;7.35;;
39308;SDS011;26019;47.510;19.122;2022-07-03T00:13:42;10.15;;;6.63;;
39308;SDS011;26019;47.510;19.122;2022-07-03T00:23:45;9.38;;;7.22;;
39308;SDS011;26019;47.510;19.122;2022-07-03T00:33:52;7.72;;;6.90;;
39308;SDS011;26019;47.510;19.122;2022-07-03T00:43:57;9.02;;;6.60;;
39308;SDS011;26019;47.510;19.122;2022-07-03T00:53:59;8.73;;;7.13;;
39308;SDS011;26019;47.510;19.122;2022-07-03T01:14:50;9.02;;;7.35;;
39308;SDS011;26019;47.510;19.122;2022-07-03T01:35:13;10.25;;;7.85;;
39308;SDS011;26019;47.510;19.122;2022-07-03T01:45:22;13.65;;;8.32;;
39308;SDS011;26019;47.510;19.122;2022-07-03T01:55:26;9.85;;;7.78;;
39308;SDS011;26019;47.510;19.122;2022-07-03T02:05:47;11.52;;;8.63;;
39308;SDS011;26019;47.510;19.122;2022-07-03T02:15:50;9.60;;;7.22;;
39308;SDS011;26019;47.510;19.122;2022-07-03T02:25:54;8.68;;;6.90;;
39308;SDS011;26019;47.510;19.122;2022-07-03T02:36:01;10.30;;;8.35;;
39308;SDS011;26019;47.510;19.122;2022-07-03T03:07:11;10.98;;;7.88;;
39308;SDS011;26019;47.510;19.122;2022-07-03T03:17:18;8.75;;;7.88;;
39308;SDS011;26019;47.510;19.122;2022-07-03T03:27:22;23.35;;;12.88;;
39308;SDS011;26019;47.510;19.122;2022-07-03T03:37:24;13.07;;;8.40;;
39308;SDS011;26019;47.510;19.122;2022-07-03T03:47:28;8.75;;;7.88;;
39308;SDS011;26019;47.510;19.122;2022-07-03T04:07:37;11.40;;;8.63;;
39308;SDS011;26019;47.510;19.122;2022-07-03T04:17:39;10.15;;;7.50;;
39308;SDS011;26019;47.510;19.122;2022-07-03T04:27:41;13.43;;;8.02;;
39308;SDS011;26019;47.510;19.122;2022-07-03T04:38:04;9.10;;;8.20;;
39308;SDS011;26019;47.510;19.122;2022-07-03T04:48:06;19.98;;;16.73;;
39308;SDS011;26019;47.510;19.122;2022-07-03T04:58:08;17.17;;;13.27;;
39308;SDS011;26019;47.510;19.122;2022-07-03T05:08:09;10.00;;;8.90;;
39308;SDS011;26019;47.510;19.122;2022-07-03T05:18:11;9.52;;;8.52;;
39308;SDS011;26019;47.510;19.122;2022-07-03T05:28:14;10.93;;;9.05;;
39308;SDS011;26019;47.510;19.122;2022-07-03T05:38:19;8.13;;;7.30;;
39308;SDS011;26019;47.510;19.122;2022-07-03T05:48:39;12.95;;;10.60;;
39308;SDS011;26019;47.510;19.122;2022-07-03T05:58:41;9.30;;;7.30;;
39308;SDS011;26019;47.510;19.122;2022-07-03T06:08:43;9.85;;;7.88;;
39308;SDS011;26019;47.510;19.122;2022-07-03T06:18:48;13.75;;;11.60;;
39308;SDS011;26019;47.510;19.122;2022-07-03T06:28:51;11.18;;;7.80;;
39308;SDS011;26019;47.510;19.122;2022-07-03T06:38:53;8.82;;;7.13;;
39308;SDS011;26019;47.510;19.122;2022-07-03T06:48:55;8.48;;;7.60;;
39308;SDS011;26019;47.510;19.122;2022-07-03T06:58:57;33.33;;;25.55;;
39308;SDS011;26019;47.510;19.122;2022-07-03T07:08:59;18.65;;;13.77;;
39308;SDS011;26019;47.510;19.122;2022-07-03T07:19:01;11.35;;;7.35;;
39308;SDS011;26019;47.510;19.122;2022-07-03T07:29:03;9.75;;;7.10;;
39308;SDS011;26019;47.510;19.122;2022-07-03T07:39:05;9.65;;;7.95;;
39308;SDS011;26019;47.510;19.122;2022-07-03T07:49:06;9.05;;;7.35;;
39308;SDS011;26019;47.510;19.122;2022-07-03T07:59:08;13.45;;;7.93;;
39308;SDS011;26019;47.510;19.122;2022-07-03T08:09:10;9.63;;;7.45;;
39308;SDS011;26019;47.510;19.122;2022-07-03T08:19:12;8.73;;;7.60;;
39308;SDS011;26019;47.510;19.122;2022-07-03T08:29:14;9.75;;;7.25;;
39308;SDS011;26019;47.510;19.122;2022-07-03T08:39:16;13.13;;;7.50;;
39308;SDS011;26019;47.510;19.122;2022-07-03T08:49:18;14.32;;;8.25;;
39308;SDS011;26019;47.510;19.122;2022-07-03T08:59:22;10.32;;;6.90;;
39308;SDS011;26019;47.510;19.122;2022-07-03T09:09:28;8.18;;;7.38;;
39308;SDS011;26019;47.510;19.122;2022-07-03T09:19:39;7.72;;;7.03;;
39308;SDS011;26019;47.510;19.122;2022-07-03T09:29:50;7.30;;;6.63;;
39308;SDS011;26019;47.510;19.122;2022-07-03T09:39:56;7.75;;;7.00;;
39308;SDS011;26019;47.510;19.122;2022-07-03T09:50:01;7.10;;;6.40;;
39308;SDS011;26019;47.510;19.122;2022-07-03T10:10:18;10.45;;;5.80;;
39308;SDS011;26019;47.510;19.122;2022-07-03T10:20:24;7.55;;;6.32;;
39308;SDS011;26019;47.510;19.122;2022-07-03T10:30:28;5.97;;;5.20;;
39308;SDS011;26019;47.510;19.122;2022-07-03T10:40:40;6.25;;;5.65;;
39308;SDS011;26019;47.510;19.122;2022-07-03T10:51:11;5.90;;;5.40;;
39308;SDS011;26019;47.510;19.122;2022-07-03T11:01:13;6.63;;;5.15;;
39308;SDS011;26019;47.510;19.122;2022-07-03T11:12:02;7.53;;;5.47;;
39308;SDS011;26019;47.510;19.122;2022-07-03T11:21:57;5.78;;;5.20;;
39308;SDS011;26019;47.510;19.122;2022-07-03T11:32:52;10.18;;;6.50;;
39308;SDS011;26019;47.510;19.122;2022-07-03T11:42:47;5.60;;;5.15;;
39308;SDS011;26019;47.510;19.122;2022-07-03T11:52:49;6.03;;;4.78;;
39308;SDS011;26019;47.510;19.122;2022-07-03T12:02:50;7.07;;;3.80;;
39308;SDS011;26019;47.510;19.122;2022-07-03T12:12:52;4.60;;;4.05;;
39308;SDS011;26019;47.510;19.122;2022-07-03T12:22:55;7.57;;;4.57;;
39308;SDS011;26019;47.510;19.122;2022-07-03T12:32:57;6.78;;;4.65;;
39308;SDS011;26019;47.510;19.122;2022-07-03T12:42:59;6.33;;;4.20;;
39308;SDS011;26019;47.510;19.122;2022-07-03T12:53:02;4.82;;;3.33;;
39308;SDS011;26019;47.510;19.122;2022-07-03T13:03:04;6.23;;;3.20;;
39308;SDS011;26019;47.510;19.122;2022-07-03T13:13:26;5.90;;;3.17;;
39308;SDS011;26019;47.510;19.122;2022-07-03T13:23:49;7.55;;;3.10;;
39308;SDS011;26019;47.510;19.122;2022-07-03T13:33:55;3.30;;;2.60;;
39308;SDS011;26019;47.510;19.122;2022-07-03T13:44:00;9.40;;;2.95;;
39308;SDS011;26019;47.510;19.122;2022-07-03T13:54:12;8.18;;;3.28;;
39308;SDS011;26019;47.510;19.122;2022-07-03T14:04:14;3.50;;;2.53;;
39308;SDS011;26019;47.510;19.122;2022-07-03T14:14:16;3.28;;;2.63;;
39308;SDS011;26019;47.510;19.122;2022-07-03T14:24:18;10.05;;;2.85;;
39308;SDS011;26019;47.510;19.122;2022-07-03T14:34:19;6.60;;;2.05;;
39308;SDS011;26019;47.510;19.122;2022-07-03T14:44:21;7.32;;;2.13;;
39308;SDS011;26019;47.510;19.122;2022-07-03T14:54:25;9.60;;;2.53;;
39308;SDS011;26019;47.510;19.122;2022-07-03T15:14:50;5.63;;;2.53;;
39308;SDS011;26019;47.510;19.122;2022-07-03T15:24:54;2.60;;;1.80;;
39308;SDS011;26019;47.510;19.122;2022-07-03T15:35:00;4.30;;;2.40;;
39308;SDS011;26019;47.510;19.122;2022-07-03T15:45:41;5.25;;;2.10;;
39308;SDS011;26019;47.510;19.122;2022-07-03T15:55:35;4.97;;;2.58;;
39308;SDS011;26019;47.510;19.122;2022-07-03T16:05:41;5.50;;;2.10;;
39308;SDS011;26019;47.510;19.122;2022-07-03T16:25:47;4.50;;;1.80;;
39308;SDS011;26019;47.510;19.122;2022-07-03T16:35:57;8.95;;;6.70;;
39308;SDS011;26019;47.510;19.122;2022-07-03T16:46:09;4.88;;;2.25;;
39308;SDS011;26019;47.510;19.122;2022-07-03T16:56:14;4.53;;;2.30;;
39308;SDS011;26019;47.510;19.122;2022-07-03T17:06:18;2.95;;;2.00;;
39308;SDS011;26019;47.510;19.122;2022-07-03T17:16:22;10.73;;;2.38;;
39308;SDS011;26019;47.510;19.122;2022-07-03T17:26:31;3.95;;;2.75;;
39308;SDS011;26019;47.510;19.122;2022-07-03T17:36:36;8.07;;;2.83;;
39308;SDS011;26019;47.510;19.122;2022-07-03T17:46:39;6.82;;;2.92;;
39308;SDS011;26019;47.510;19.122;2022-07-03T17:56:44;3.78;;;2.17;;
39308;SDS011;26019;47.510;19.122;2022-07-03T18:06:48;4.32;;;2.75;;
39308;SDS011;26019;47.510;19.122;2022-07-03T18:16:50;4.25;;;2.63;;
39308;SDS011;26019;47.510;19.122;2022-07-03T18:26:57;8.73;;;2.42;;
39308;SDS011;26019;47.510;19.122;2022-07-03T18:37:07;3.88;;;2.40;;
39308;SDS011;26019;47.510;19.122;2022-07-03T18:47:11;8.23;;;2.75;;
39308;SDS011;26019;47.510;19.122;2022-07-03T18:57:17;6.63;;;3.22;;
39308;SDS011;26019;47.510;19.122;2022-07-03T19:07:28;3.67;;;2.90;;
39308;SDS011;26019;47.510;19.122;2022-07-03T19:17:35;3.67;;;2.95;;
39308;SDS011;26019;47.510;19.122;2022-07-03T19:27:38;5.65;;;2.90;;
39308;SDS011;26019;47.510;19.122;2022-07-03T19:37:41;4.03;;;2.95;;
39308;SDS011;26019;47.510;19.122;2022-07-03T19:47:44;7.35;;;3.20;;
39308;SDS011;26019;47.510;19.122;2022-07-03T19:57:46;7.55;;;3.13;;
39308;SDS011;26019;47.510;19.122;2022-07-03T20:07:48;7.43;;;3.03;;
39308;SDS011;26019;47.510;19.122;2022-07-03T20:17:50;3.97;;;3.00;;
39308;SDS011;26019;47.510;19.122;2022-07-03T20:28:12;6.90;;;2.97;;
39308;SDS011;26019;47.510;19.122;2022-07-03T20:38:15;4.35;;;2.80;;
39308;SDS011;26019;47.510;19.122;2022-07-03T20:48:17;6.00;;;3.00;;
39308;SDS011;26019;47.510;19.122;2022-07-03T20:58:27;6.15;;;3.97;;
39308;SDS011;26019;47.510;19.122;2022-07-03T21:08:29;5.28;;;3.60;;
39308;SDS011;26019;47.510;19.122;2022-07-03T21:18:31;4.60;;;3.58;;
39308;SDS011;26019;47.510;19.122;2022-07-03T21:28:33;8.38;;;5.65;;
39308;SDS011;26019;47.510;19.122;2022-07-03T21:38:38;4.47;;;3.88;;
39308;SDS011;26019;47.510;19.122;2022-07-03T21:48:40;6.20;;;4.15;;
39308;SDS011;26019;47.510;19.122;2022-07-03T21:58:44;7.97;;;3.92;;
39308;SDS011;26019;47.510;19.122;2022-07-03T22:08:45;9.40;;;5.32;;
39308;SDS011;26019;47.510;19.122;2022-07-03T22:18:48;24.25;;;3.92;;
39308;SDS011;26019;47.510;19.122;2022-07-03T22:28:49;6.38;;;4.00;;
39308;SDS011;26019;47.510;19.122;2022-07-03T22:38:52;5.28;;;3.35;;
39308;SDS011;26019;47.510;19.122;2022-07-03T22:48:54;8.80;;;3.50;;
39308;SDS011;26019;47.510;19.122;2022-07-03T22:58:56;6.15;;;3.60;;
39308;SDS011;26019;47.510;19.122;2022-07-03T23:09:03;11.13;;;4.00;;
39308;SDS011;26019;47.510;19.122;2022-07-03T23:19:08;7.30;;;3.60;;
39308;SDS011;26019;47.510;19.122;2022-07-03T23:29:10;4.57;;;3.50;;
39308;SDS011;26019;47.510;19.122;2022-07-03T23:39:12;6.20;;;3.45;;
39308;SDS011;26019;47.510;19.122;2022-07-03T23:49:14;6.18;;;3.70;;
39308;SDS011;26019;47.510;19.122;2022-07-03T23:59:34;7.63;;;3.50;;
